This is the latest recevied weather packets stored in our database for station/object N6GPM. If no packets are shown the sender has not sent any weather packets the latest 10 day(s).
| Time | Temp. | Humidity | Pressure | Rain* | Wind** | Luminosity | Snow |
|---|---|---|---|---|---|---|---|
| 1777759441 | 27.22° C | 47% | 1014.9 hPa | 0 mm | - | 685 W/m² | - |
| 1777759137 | 26.67° C | 48% | 1014.9 hPa | 0 mm | - | 627 W/m² | - |
| 1777758835 | 26.11° C | 48% | 1015.2 hPa | 0 mm | - | 622 W/m² | - |
| 1777758532 | 26.67° C | 45% | 1015.5 hPa | 0 mm | - | 546 W/m² | - |
| 1777758228 | 25.56° C | 48% | 1015.3 hPa | 0 mm | - | 729 W/m² | - |
| 1777757926 | 25.56° C | 44% | 1015.4 hPa | 0 mm | - | 594 W/m² | - |
| 1777757623 | 26.11° C | 48% | 1015.3 hPa | 0 mm | - | 736 W/m² | - |
| 1777757322 | 26.11° C | 47% | 1015.5 hPa | 0 mm | - | 527 W/m² | - |
| 1777757020 | 26.11° C | 48% | 1015.7 hPa | 0 mm | - | 695 W/m² | - |
| 1777756717 | 26.11° C | 46% | 1015.6 hPa | 0 mm | - | 672 W/m² | - |
| 1777756412 | 26.11° C | 47% | 1015.8 hPa | 0 mm | - | 584 W/m² | - |
| 1777756110 | 26.11° C | 44% | 1015.7 hPa | 0 mm | - | 617 W/m² | - |
| 1777755807 | 25.56° C | 46% | 1015.6 hPa | 0 mm | - | 586 W/m² | - |
| 1777755504 | 25.56° C | 45% | 1015.8 hPa | 0 mm | - | 592 W/m² | - |
| 1777755200 | 25.56° C | 46% | 1016 hPa | 0 mm | - | 601 W/m² | - |
| 1777754897 | 25.56° C | 46% | 1015.9 hPa | 0 mm | - | 511 W/m² | - |
| 1777754594 | 25° C | 50% | 1015.9 hPa | 0 mm | - | 566 W/m² | - |
| 1777754292 | 25° C | 50% | 1016.1 hPa | 0 mm | - | 607 W/m² | - |
| 1777753989 | 25° C | 51% | 1016 hPa | 0 mm | - | 652 W/m² | - |
| 1777753689 | 24.44° C | 51% | 1016.1 hPa | 0 mm | - | 547 W/m² | - |
| 1777753387 | 24.44° C | 53% | 1016 hPa | 0 mm | - | 687 W/m² | - |
| 1777753085 | 24.44° C | 56% | 1016.2 hPa | 0 mm | - | 662 W/m² | - |
| 1777752781 | 24.44° C | 54% | 1016.2 hPa | 0 mm | - | 682 W/m² | - |
| 1777752477 | 24.44° C | 54% | 1016.6 hPa | 0 mm | - | 636 W/m² | - |
| 1777752173 | 23.89° C | 55% | 1016.6 hPa | 0 mm | - | 663 W/m² | - |
* Rain latest hour (hover to see other rain measurements)
** Current wind speed in m/s (hover to see current wind gust speed)